Time;durP1;ratioP1;P1;durP2;ratioP2;P2;SDS_P1;SDS_P2;PMS_P1;PMS_P2;Temp;Humidity;BMP_temperature;BMP_pressure;BME280_temperature;BME280_humidity;BME280_pressure;Samples;Min_cycle;Max_cycle;Signal;HPM_P1;HPM_P2
2023/03/27 00:00:19;;;;;;;7.40;1.35;;;;;;;1.84;100.00;101306.69;5053944;28;20127;-48
2023/03/27 00:02:48;;;;;;;7.10;1.52;;;;;;;1.83;100.00;101307.56;5061599;28;20048;-47
2023/03/27 00:05:19;;;;;;;10.70;1.63;;;;;;;1.77;100.00;101310.28;5058929;28;20040;-50
2023/03/27 00:07:48;;;;;;;8.52;1.40;;;;;;;1.76;100.00;101313.75;5061681;28;20530;-54
2023/03/27 00:10:16;;;;;;;9.52;1.33;;;;;;;1.77;100.00;101320.66;5065582;28;20044;-54
2023/03/27 00:12:46;;;;;;;9.32;1.63;;;;;;;1.75;100.00;101325.03;5059390;28;20044;-54
2023/03/27 00:15:16;;;;;;;9.10;1.30;;;;;;;1.71;100.00;101323.38;5055655;28;20041;-55
2023/03/27 00:17:46;;;;;;;10.82;1.38;;;;;;;1.67;100.00;101332.94;5059648;28;20562;-54
2023/03/27 00:20:15;;;;;;;8.45;1.40;;;;;;;1.63;100.00;101328.72;5056634;28;20090;-55
2023/03/27 00:22:44;;;;;;;8.85;1.73;;;;;;;1.60;100.00;101333.13;5055795;28;20131;-47
2023/03/27 00:25:12;;;;;;;7.25;1.50;;;;;;;1.57;100.00;101336.63;5059716;28;20051;-45
2023/03/27 00:27:43;;;;;;;11.07;1.45;;;;;;;1.52;100.00;101339.28;5057538;28;20067;-50
2023/03/27 00:30:14;;;;;;;8.52;1.50;;;;;;;1.51;100.00;101349.69;5058855;28;20459;-48
2023/03/27 00:32:42;;;;;;;8.50;1.80;;;;;;;1.47;100.00;101348.91;5062141;28;20056;-49
2023/03/27 00:35:11;;;;;;;10.77;2.10;;;;;;;1.48;100.00;101355.78;5055407;28;20047;-49
2023/03/27 00:37:39;;;;;;;7.90;1.52;;;;;;;1.45;100.00;101350.66;5059898;28;20053;-55
2023/03/27 00:40:16;;;;;;;6.90;1.50;;;;;;;1.45;100.00;101360.19;5057131;28;20049;-56
2023/03/27 00:42:45;;;;;;;12.85;1.73;;;;;;;1.49;100.00;101359.25;5053082;28;20468;-56
2023/03/27 00:45:20;;;;;;;14.05;1.92;;;;;;;1.46;100.00;101351.50;5055093;28;20037;-55
2023/03/27 00:47:53;;;;;;;9.68;1.73;;;;;;;1.52;100.00;101360.03;5063660;28;20052;-56
2023/03/27 00:50:28;;;;;;;8.93;1.55;;;;;;;1.57;100.00;101359.09;5073312;28;20044;-56
2023/03/27 00:53:00;;;;;;;14.13;2.13;;;;;;;1.56;100.00;101363.44;5057136;28;20045;-57
2023/03/27 00:55:33;;;;;;;10.88;1.80;;;;;;;1.51;100.00;101360.94;5051823;28;20511;-55
2023/03/27 00:58:06;;;;;;;10.25;1.70;;;;;;;1.52;100.00;101362.63;5051302;28;20056;-56
2023/03/27 01:00:36;;;;;;;9.18;1.95;;;;;;;1.50;100.00;101377.38;5055134;28;20148;-55
2023/03/27 01:03:08;;;;;;;8.23;1.80;;;;;;;1.46;100.00;101372.25;5050862;28;20143;-56
2023/03/27 01:05:36;;;;;;;7.63;1.88;;;;;;;1.44;100.00;101379.22;5054936;28;20048;-54
2023/03/27 01:08:06;;;;;;;10.52;1.90;;;;;;;1.44;100.00;101372.28;5072273;28;20053;-55
2023/03/27 01:10:47;;;;;;;6.65;1.50;;;;;;;1.44;100.00;101374.88;5052712;28;20308;-55
2023/03/27 01:13:31;;;;;;;8.32;1.33;;;;;;;1.42;100.00;101375.78;5052175;28;20060;-54
2023/03/27 01:16:05;;;;;;;10.15;1.30;;;;;;;1.41;100.00;101387.06;5053333;28;20480;-54
2023/03/27 01:18:46;;;;;;;5.65;1.50;;;;;;;1.41;100.00;101379.28;5065844;28;20486;-55
2023/03/27 01:21:43;;;;;;;8.60;1.85;;;;;;;1.43;100.00;101382.69;5058973;28;20055;-54
2023/03/27 01:24:57;;;;;;;9.30;1.42;;;;;;;1.39;100.00;101381.91;5056047;28;20124;-55
2023/03/27 01:28:01;;;;;;;6.60;1.35;;;;;;;1.38;100.00;101390.56;5042334;28;20596;-54
2023/03/27 01:30:34;;;;;;;11.48;1.98;;;;;;;1.38;100.00;101400.94;5060113;28;20495;-56
2023/03/27 01:33:47;;;;;;;9.82;1.30;;;;;;;1.34;100.00;101396.69;5062642;28;20041;-56
2023/03/27 01:36:33;;;;;;;8.70;1.40;;;;;;;1.39;100.00;101400.06;5049349;28;20103;-56
2023/03/27 01:39:22;;;;;;;6.10;1.30;;;;;;;1.38;100.00;101403.53;5063558;28;20044;-55
2023/03/27 01:41:56;;;;;;;5.40;1.15;;;;;;;1.35;100.00;101412.19;5059679;28;20049;-56
2023/03/27 01:44:34;;;;;;;7.05;1.25;;;;;;;1.35;100.00;101419.13;5063192;28;20048;-55
2023/03/27 01:47:19;;;;;;;10.07;1.70;;;;;;;1.31;100.00;101430.41;5064584;28;20196;-56
2023/03/27 01:49:54;;;;;;;9.00;1.50;;;;;;;1.27;100.00;101436.53;5062956;28;20430;-55
2023/03/27 01:52:27;;;;;;;10.85;1.45;;;;;;;1.26;100.00;101427.06;5066230;28;20040;-55
2023/03/27 01:55:02;;;;;;;10.73;1.40;;;;;;;1.25;100.00;101431.38;5063883;28;20044;-55
2023/03/27 01:57:36;;;;;;;10.13;1.88;;;;;;;1.23;100.00;101437.44;5056915;28;20110;-55
2023/03/27 02:00:21;;;;;;;7.32;1.40;;;;;;;1.21;100.00;101439.22;5060348;28;20075;-55
2023/03/27 02:02:53;;;;;;;7.43;1.50;;;;;;;1.19;100.00;101439.25;5063958;28;20092;-56
2023/03/27 02:05:30;;;;;;;8.05;1.70;;;;;;;1.21;100.00;101437.47;5058628;28;20041;-57
2023/03/27 02:08:07;;;;;;;7.70;2.20;;;;;;;1.20;100.00;101443.56;5060860;28;20040;-54
2023/03/27 02:10:44;;;;;;;11.27;1.73;;;;;;;1.22;100.00;101448.72;5061841;28;20114;-55
2023/03/27 02:13:18;;;;;;;16.48;1.90;;;;;;;1.24;100.00;101446.94;5061209;28;20079;-57
2023/03/27 02:15:49;;;;;;;9.23;2.17;;;;;;;1.21;100.00;101453.03;5062539;28;20045;-57
2023/03/27 02:18:22;;;;;;;12.13;2.25;;;;;;;1.24;100.00;101459.91;5060673;28;20048;-55
2023/03/27 02:20:50;;;;;;;7.20;1.67;;;;;;;1.25;100.00;101461.63;5059164;28;20056;-57
2023/03/27 02:23:21;;;;;;;11.55;2.50;;;;;;;1.31;100.00;101462.38;5062189;28;20562;-56
2023/03/27 02:25:53;;;;;;;14.20;2.75;;;;;;;1.33;100.00;101464.94;5060254;28;20052;-57
2023/03/27 02:28:38;;;;;;;12.45;3.03;;;;;;;1.32;100.00;101473.59;5060229;28;20060;-54
2023/03/27 02:31:18;;;;;;;7.20;1.67;;;;;;;1.34;100.00;101471.84;5058793;28;20139;-56
2023/03/27 02:34:24;;;;;;;9.73;1.73;;;;;;;1.35;100.00;101464.03;5061642;28;20045;-56
2023/03/27 02:37:00;;;;;;;5.65;1.83;;;;;;;1.38;100.00;101467.44;5062106;28;20040;-57
2023/03/27 02:39:40;;;;;;;6.85;1.70;;;;;;;1.40;100.00;101478.66;5056057;28;20044;-57
2023/03/27 02:42:16;;;;;;;7.85;2.40;;;;;;;1.39;100.00;101480.41;5056070;28;20045;-56
2023/03/27 02:44:50;;;;;;;6.63;1.48;;;;;;;1.38;100.00;101483.88;5058041;28;20071;-56
2023/03/27 02:47:25;;;;;;;11.82;1.77;;;;;;;1.36;100.00;101480.44;5061350;28;20057;-55
2023/03/27 02:50:00;;;;;;;8.23;2.10;;;;;;;1.39;100.00;101485.59;5058572;28;20102;-57
2023/03/27 02:52:34;;;;;;;10.45;1.73;;;;;;;1.37;100.00;101487.34;5059726;28;20149;-56
2023/03/27 02:55:08;;;;;;;8.38;1.83;;;;;;;1.38;100.00;101486.47;5061064;28;20045;-56
2023/03/27 02:57:38;;;;;;;7.22;1.67;;;;;;;1.37;100.00;101484.75;5059998;28;20045;-57
2023/03/27 03:00:17;;;;;;;6.82;1.35;;;;;;;1.35;100.00;101494.31;5060766;28;20116;-56
2023/03/27 03:02:47;;;;;;;7.28;1.52;;;;;;;1.33;100.00;101496.88;5060615;28;20639;-56
2023/03/27 03:05:21;;;;;;;12.93;2.03;;;;;;;1.31;100.00;101493.47;5058970;28;20048;-57
2023/03/27 03:07:49;;;;;;;7.63;1.67;;;;;;;1.33;100.00;101503.81;5057545;28;20431;-55
2023/03/27 03:10:18;;;;;;;7.45;1.40;;;;;;;1.32;100.00;101505.56;5061315;28;20041;-57
2023/03/27 03:12:47;;;;;;;6.07;1.30;;;;;;;1.33;100.00;101514.19;5058640;28;20071;-55
2023/03/27 03:15:17;;;;;;;5.28;1.20;;;;;;;1.33;100.00;101511.59;5062777;28;20136;-56
2023/03/27 03:17:45;;;;;;;5.30;1.35;;;;;;;1.29;100.00;101520.31;5059158;28;20045;-55
2023/03/27 03:20:15;;;;;;;7.82;1.40;;;;;;;1.31;100.00;101521.13;5058166;28;20120;-56
2023/03/27 03:22:43;;;;;;;4.00;1.40;;;;;;;1.26;100.00;101528.13;5056505;28;20032;-56
2023/03/27 03:25:14;;;;;;;5.50;1.33;;;;;;;1.25;100.00;101524.66;5059277;28;20044;-56
2023/03/27 03:27:42;;;;;;;7.07;1.42;;;;;;;1.21;100.00;101528.19;5059008;28;20097;-56
2023/03/27 03:30:13;;;;;;;5.93;1.45;;;;;;;1.17;100.00;101530.00;5060923;28;20044;-55
2023/03/27 03:32:45;;;;;;;6.10;1.52;;;;;;;1.13;100.00;101535.22;5059737;28;20056;-56
2023/03/27 03:35:14;;;;;;;7.05;1.20;;;;;;;1.13;100.00;101541.28;5054525;28;20143;-55
2023/03/27 03:37:48;;;;;;;6.97;1.52;;;;;;;1.14;100.00;101550.75;5058624;28;20041;-56
2023/03/27 03:40:19;;;;;;;5.43;1.20;;;;;;;1.14;100.00;101557.66;5059403;28;20044;-56
2023/03/27 03:42:49;;;;;;;3.80;1.33;;;;;;;1.15;100.00;101547.28;5060761;28;20625;-57
2023/03/27 03:45:19;;;;;;;3.08;1.10;;;;;;;1.18;100.00;101557.59;5056428;28;20037;-55
2023/03/27 03:47:47;;;;;;;3.72;1.30;;;;;;;1.22;100.00;101555.81;5062456;28;20048;-57
2023/03/27 03:50:16;;;;;;;6.80;1.15;;;;;;;1.24;100.00;101563.56;5055431;28;20050;-55
2023/03/27 03:52:45;;;;;;;6.10;1.48;;;;;;;1.24;100.00;101567.03;5059585;28;20463;-56
2023/03/27 03:55:14;;;;;;;3.13;1.10;;;;;;;1.27;100.00;101576.47;5053622;28;20095;-57
2023/03/27 03:57:45;;;;;;;4.70;1.20;;;;;;;1.30;100.00;101574.69;5060342;28;20045;-55
2023/03/27 04:00:15;;;;;;;4.43;1.15;;;;;;;1.34;100.00;101585.91;5052197;28;20052;-55
2023/03/27 04:02:45;;;;;;;7.95;1.20;;;;;;;1.37;100.00;101606.56;5059271;28;20043;-55
2023/03/27 04:05:14;;;;;;;5.15;1.00;;;;;;;1.37;100.00;101614.34;5055704;28;20459;-57
2023/03/27 04:07:42;;;;;;;7.40;1.23;;;;;;;1.34;100.00;101620.44;5054658;28;20167;-57
2023/03/27 04:10:12;;;;;;;6.82;1.15;;;;;;;1.32;100.00;101621.34;5063572;28;20102;-54
2023/03/27 04:12:40;;;;;;;2.53;1.17;;;;;;;1.30;100.00;101630.88;5060772;28;20052;-57
2023/03/27 04:15:09;;;;;;;9.18;1.00;;;;;;;1.20;100.00;101640.53;5056209;28;20044;-54
2023/03/27 04:17:37;;;;;;;4.38;1.02;;;;;;;1.12;100.00;101655.31;5058927;28;20040;-56
2023/03/27 04:20:08;;;;;;;3.22;0.80;;;;;;;0.96;100.00;101654.63;5055483;28;20048;-57
2023/03/27 04:22:36;;;;;;;5.97;0.98;;;;;;;0.90;100.00;101652.09;5055927;28;20045;-57
2023/03/27 04:25:07;;;;;;;4.93;1.02;;;;;;;0.93;100.00;101641.72;5051611;28;20044;-57
2023/03/27 04:27:35;;;;;;;2.33;0.68;;;;;;;1.00;100.00;101643.34;5060157;28;20037;-58
2023/03/27 04:30:07;;;;;;;2.72;0.80;;;;;;;1.04;100.00;101639.84;5058766;28;20058;-57
2023/03/27 04:32:35;;;;;;;1.75;0.80;;;;;;;1.08;100.00;101640.66;5060463;28;20052;-57
2023/03/27 04:35:03;;;;;;;2.47;0.77;;;;;;;1.14;100.00;101640.59;5060683;28;20040;-57
2023/03/27 04:37:33;;;;;;;3.28;0.90;;;;;;;1.13;100.00;101647.50;5059365;28;20072;-56
2023/03/27 04:40:04;;;;;;;6.72;1.10;;;;;;;1.10;100.00;101652.72;5064126;28;20059;-56
2023/03/27 04:42:32;;;;;;;2.85;0.68;;;;;;;1.07;100.00;101655.34;5066551;28;20063;-57
2023/03/27 04:45:01;;;;;;;3.72;0.80;;;;;;;1.00;100.00;101651.97;5057830;28;20052;-56
2023/03/27 04:47:30;;;;;;;3.40;0.70;;;;;;;1.06;100.00;101655.38;5062015;28;20065;-54
2023/03/27 04:49:58;;;;;;;2.80;0.73;;;;;;;1.06;100.00;101648.44;5057949;28;20566;-56
2023/03/27 04:52:28;;;;;;;4.25;0.80;;;;;;;1.07;100.00;101655.34;5058449;28;20052;-55
2023/03/27 04:54:59;;;;;;;4.70;1.38;;;;;;;1.07;100.00;101654.50;5058848;28;20041;-55
2023/03/27 04:57:29;;;;;;;4.13;0.88;;;;;;;0.95;100.00;101661.53;5063687;28;20499;-57
2023/03/27 04:59:58;;;;;;;4.80;0.90;;;;;;;0.91;100.00;101653.81;5060254;28;20040;-57
2023/03/27 05:02:26;;;;;;;1.58;0.70;;;;;;;1.04;100.00;101664.88;5062670;28;20131;-57
2023/03/27 05:04:57;;;;;;;4.75;1.10;;;;;;;0.90;100.00;101659.88;5059480;28;20127;-55
2023/03/27 05:07:27;;;;;;;3.03;0.90;;;;;;;0.92;100.00;101671.09;5058917;28;20044;-57
2023/03/27 05:10:00;;;;;;;3.25;0.90;;;;;;;1.02;100.00;101670.09;5060528;28;20396;-54
2023/03/27 05:12:29;;;;;;;4.03;0.93;;;;;;;1.00;100.00;101671.84;5065691;28;20047;-54
2023/03/27 05:14:58;;;;;;;4.03;0.73;;;;;;;0.95;100.00;101676.22;5063918;28;20559;-56
2023/03/27 05:17:26;;;;;;;2.15;0.95;;;;;;;0.97;100.00;101680.53;5062765;28;20068;-55
2023/03/27 05:19:55;;;;;;;3.30;0.88;;;;;;;0.95;100.00;101686.59;5062899;28;20053;-55
2023/03/27 05:22:23;;;;;;;2.75;0.90;;;;;;;0.87;100.00;101684.06;5063131;28;20044;-53
2023/03/27 05:24:52;;;;;;;2.65;0.90;;;;;;;0.89;100.00;101684.94;5061070;28;20080;-56
2023/03/27 05:27:21;;;;;;;4.22;0.90;;;;;;;0.86;100.00;101687.56;5058543;28;20097;-55
2023/03/27 05:29:49;;;;;;;6.15;1.02;;;;;;;0.82;100.00;101691.91;5059947;28;20048;-56
2023/03/27 05:32:17;;;;;;;5.00;1.33;;;;;;;0.88;100.00;101695.31;5058766;28;20045;-56
2023/03/27 05:34:49;;;;;;;2.35;1.00;;;;;;;0.93;100.00;101691.78;5056718;28;20155;-57
2023/03/27 05:37:18;;;;;;;4.03;1.08;;;;;;;0.89;100.00;101703.06;5057793;28;20468;-57
2023/03/27 05:39:46;;;;;;;4.60;1.10;;;;;;;0.86;100.00;101707.41;5060974;28;20106;-57
2023/03/27 05:42:15;;;;;;;5.28;1.50;;;;;;;0.80;100.00;101716.09;5055378;28;20056;-55
2023/03/27 05:44:44;;;;;;;3.42;1.20;;;;;;;0.74;100.00;101711.00;5058387;28;20044;-57
2023/03/27 05:47:13;;;;;;;3.53;1.23;;;;;;;0.78;100.00;101715.28;5061192;28;21640;-57
2023/03/27 05:49:41;;;;;;;3.05;1.17;;;;;;;0.81;100.00;101710.06;5061199;28;20079;-55
2023/03/27 05:52:09;;;;;;;3.25;1.33;;;;;;;0.84;100.00;101720.38;5060737;28;20052;-56
2023/03/27 05:54:37;;;;;;;3.42;1.20;;;;;;;0.86;100.00;101717.78;5059426;28;20057;-57
2023/03/27 05:57:07;;;;;;;6.88;1.75;;;;;;;0.80;100.00;101719.53;5061636;28;20040;-56
2023/03/27 05:59:36;;;;;;;4.30;1.40;;;;;;;0.83;100.00;101724.72;5061619;28;20365;-56
2023/03/27 06:02:05;;;;;;;3.20;1.35;;;;;;;0.83;100.00;101729.00;5061129;28;20064;-55
2023/03/27 06:04:36;;;;;;;3.20;1.10;;;;;;;0.88;100.00;101737.59;5056822;28;20051;-57
2023/03/27 06:07:04;;;;;;;4.38;1.52;;;;;;;0.83;100.00;101731.59;5057638;28;20171;-56
2023/03/27 06:09:34;;;;;;;6.97;1.48;;;;;;;0.83;100.00;101734.19;5059916;28;20044;-57
2023/03/27 06:12:02;;;;;;;3.10;1.33;;;;;;;0.86;100.00;101731.59;5061413;28;20062;-56
2023/03/27 06:14:30;;;;;;;4.60;1.45;;;;;;;0.93;100.00;101740.16;5059488;28;20124;-56
2023/03/27 06:16:58;;;;;;;5.40;1.40;;;;;;;0.94;100.00;101749.63;5062385;28;20079;-57
2023/03/27 06:19:28;;;;;;;5.20;1.75;;;;;;;0.92;100.00;101751.38;5065510;28;20056;-55
2023/03/27 06:21:56;;;;;;;4.20;1.63;;;;;;;0.94;100.00;101749.63;5073876;28;20054;-56
2023/03/27 06:24:24;;;;;;;6.20;1.88;;;;;;;0.95;100.00;101743.59;5072374;28;20068;-56
2023/03/27 06:26:52;;;;;;;7.15;1.80;;;;;;;1.03;100.00;101741.75;5061644;28;20493;-56
2023/03/27 06:29:20;;;;;;;5.15;2.08;;;;;;;1.09;100.00;101756.38;5058463;28;20064;-56
2023/03/27 06:31:48;;;;;;;4.75;1.90;;;;;;;1.11;100.00;101757.25;5055842;28;20048;-56
2023/03/27 06:34:16;;;;;;;8.23;2.00;;;;;;;1.19;100.00;101763.19;5064258;28;20114;-55
2023/03/27 06:36:49;;;;;;;6.32;2.03;;;;;;;1.29;100.00;101763.94;5058712;28;20055;-56
2023/03/27 06:39:18;;;;;;;8.23;2.25;;;;;;;1.32;100.00;101769.06;5061963;28;20073;-55
2023/03/27 06:41:46;;;;;;;8.30;2.58;;;;;;;1.34;100.00;101769.94;5061623;28;20052;-56
2023/03/27 06:44:14;;;;;;;6.75;2.10;;;;;;;1.43;100.00;101781.91;5055703;28;20504;-57
2023/03/27 06:46:42;;;;;;;5.28;2.05;;;;;;;1.40;100.00;101776.78;5056734;28;20075;-55
2023/03/27 06:49:12;;;;;;;8.98;2.65;;;;;;;1.42;100.00;101775.88;5058014;28;20399;-56
2023/03/27 06:51:40;;;;;;;9.00;2.40;;;;;;;1.44;100.00;101776.69;5062053;28;20079;-55
2023/03/27 06:54:11;;;;;;;7.20;2.40;;;;;;;1.41;100.00;101774.16;5062108;28;20113;-52
2023/03/27 06:56:39;;;;;;;9.80;2.20;;;;;;;1.42;100.00;101775.88;5061783;28;20120;-56
2023/03/27 06:59:07;;;;;;;6.03;2.33;;;;;;;1.47;100.00;101778.41;5061047;28;20055;-55
2023/03/27 07:01:36;;;;;;;6.72;1.90;;;;;;;1.59;100.00;101780.00;5059921;28;20041;-54
2023/03/27 07:04:07;;;;;;;5.55;1.95;;;;;;;1.71;100.00;101777.25;5063122;28;20072;-55
2023/03/27 07:06:35;;;;;;;8.80;2.80;;;;;;;1.75;100.00;101778.06;5062529;28;20048;-56
2023/03/27 07:09:07;;;;;;;9.75;2.58;;;;;;;1.81;100.00;101789.22;5062703;28;20353;-56
2023/03/27 07:11:36;;;;;;;7.40;1.88;;;;;;;1.81;100.00;101786.63;5064953;28;20059;-57
2023/03/27 07:14:07;;;;;;;7.50;2.22;;;;;;;1.82;100.00;101792.66;5068370;28;20099;-57
2023/03/27 07:16:35;;;;;;;7.25;1.80;;;;;;;1.88;100.00;101802.09;5060925;28;20407;-57
2023/03/27 07:19:04;;;;;;;9.10;2.03;;;;;;;1.97;100.00;101809.75;5055055;28;20228;-55
2023/03/27 07:21:32;;;;;;;10.32;2.42;;;;;;;2.04;100.00;101811.38;5059007;28;20044;-56
2023/03/27 07:24:00;;;;;;;9.70;2.28;;;;;;;2.16;100.00;101810.34;5059424;28;20046;-56
2023/03/27 07:26:30;;;;;;;6.30;1.80;;;;;;;2.22;100.00;101815.44;5054616;28;20041;-56
2023/03/27 07:29:01;;;;;;;8.82;2.40;;;;;;;2.32;100.00;101813.59;5059486;28;20573;-56
2023/03/27 07:31:30;;;;;;;8.65;3.03;;;;;;;2.45;100.00;101809.06;5060972;28;20051;-55
2023/03/27 07:34:18;;;;;;;10.48;3.10;;;;;;;2.60;100.00;101824.38;5059917;28;20503;-56
2023/03/27 07:36:49;;;;;;;12.55;2.53;;;;;;;2.69;100.00;101823.38;5051117;28;20120;-55
2023/03/27 07:39:17;;;;;;;10.60;2.10;;;;;;;2.88;100.00;101827.38;5061555;28;20541;-54
2023/03/27 07:41:45;;;;;;;6.35;2.53;;;;;;;3.01;100.00;101832.38;5060700;28;20131;-55
2023/03/27 07:44:15;;;;;;;7.15;2.10;;;;;;;3.17;100.00;101830.34;5061578;28;20051;-55
2023/03/27 07:46:44;;;;;;;6.68;2.17;;;;;;;3.35;100.00;101836.94;5060489;28;20044;-55
2023/03/27 07:49:13;;;;;;;9.73;2.58;;;;;;;3.52;100.00;101841.84;5060006;28;20091;-54
2023/03/27 07:51:41;;;;;;;7.88;1.92;;;;;;;3.66;100.00;101844.16;5060400;28;20488;-55
2023/03/27 07:54:12;;;;;;;8.73;2.53;;;;;;;3.81;100.00;101856.00;5060165;28;20052;-56
2023/03/27 07:56:40;;;;;;;8.02;2.05;;;;;;;3.96;100.00;101844.41;5057704;28;20125;-53
2023/03/27 07:59:10;;;;;;;11.85;2.28;;;;;;;4.15;100.00;101857.88;5057547;28;20036;-55
2023/03/27 08:01:42;;;;;;;11.90;2.28;;;;;;;4.30;100.00;101860.13;5059899;28;20086;-53
2023/03/27 08:04:10;;;;;;;12.60;2.75;;;;;;;4.41;100.00;101859.88;5057334;28;20056;-54
2023/03/27 08:06:42;;;;;;;8.98;2.80;;;;;;;4.42;100.00;101864.22;5061788;28;20098;-54
2023/03/27 08:09:10;;;;;;;11.35;2.67;;;;;;;4.28;100.00;101858.44;5057482;28;20101;-55
2023/03/27 08:11:40;;;;;;;10.63;3.53;;;;;;;4.21;100.00;101870.75;5058663;28;20037;-53
2023/03/27 08:14:08;;;;;;;11.60;3.58;;;;;;;4.14;100.00;101866.56;5061290;28;20041;-54
2023/03/27 08:16:37;;;;;;;8.52;2.63;;;;;;;4.17;100.00;101869.09;5060185;28;20044;-54
2023/03/27 08:19:07;;;;;;;5.88;1.75;;;;;;;4.25;100.00;101877.59;5060252;28;20484;-54
2023/03/27 08:21:35;;;;;;;7.18;1.63;;;;;;;4.28;100.00;101874.06;5062709;28;20044;-53
2023/03/27 08:24:03;;;;;;;8.25;1.67;;;;;;;4.26;100.00;101881.09;5059368;28;20053;-54
2023/03/27 08:26:32;;;;;;;12.30;1.65;;;;;;;4.23;100.00;101876.78;5061595;28;20041;-54
2023/03/27 08:29:00;;;;;;;8.35;2.10;;;;;;;4.30;100.00;101882.72;5053953;28;20427;-56
2023/03/27 08:31:29;;;;;;;5.82;1.25;;;;;;;4.42;100.00;101876.38;5057634;28;20052;-54
2023/03/27 08:33:58;;;;;;;6.68;1.92;;;;;;;4.69;100.00;101880.94;5062713;28;20106;-54
2023/03/27 08:36:28;;;;;;;8.80;1.98;;;;;;;4.86;100.00;101885.75;5062194;28;20053;-54
2023/03/27 08:38:56;;;;;;;7.45;1.60;;;;;;;5.09;100.00;101886.94;5062614;28;20078;-55
2023/03/27 08:41:29;;;;;;;4.85;1.25;;;;;;;5.38;100.00;101893.13;5062955;28;20057;-55
2023/03/27 08:44:02;;;;;;;10.15;1.67;;;;;;;5.62;100.00;101885.53;5060927;28;20440;-55
2023/03/27 08:46:37;;;;;;;7.68;1.30;;;;;;;5.73;100.00;101884.34;5053822;28;20091;-56
2023/03/27 08:49:11;;;;;;;5.95;1.67;;;;;;;5.74;100.00;101883.44;5054396;28;20048;-55
2023/03/27 08:51:45;;;;;;;7.97;1.55;;;;;;;5.93;100.00;101885.50;5057928;28;20452;-55
2023/03/27 08:54:20;;;;;;;7.75;1.48;;;;;;;6.07;100.00;101903.44;5060939;28;20048;-55
2023/03/27 08:56:49;;;;;;;6.57;1.50;;;;;;;5.98;100.00;101909.78;5058373;28;20124;-56
2023/03/27 08:59:19;;;;;;;7.10;1.60;;;;;;;5.67;100.00;101917.56;5056643;28;20056;-55
2023/03/27 09:01:54;;;;;;;2.30;0.80;;;;;;;4.99;100.00;101915.00;5057747;28;20088;-55
2023/03/27 09:04:34;;;;;;;3.50;0.80;;;;;;;4.84;100.00;101926.66;5058134;28;20106;-57
2023/03/27 09:07:10;;;;;;;3.90;0.70;;;;;;;4.77;100.00;101925.06;5058684;28;21893;-52
2023/03/27 09:09:54;;;;;;;6.05;0.90;;;;;;;4.77;100.00;101943.28;5054969;28;20044;-54
2023/03/27 09:12:43;;;;;;;1.80;0.70;;;;;;;5.01;100.00;101947.06;5057261;28;20048;-55
2023/03/27 09:15:15;;;;;;;1.38;0.52;;;;;;;5.20;100.00;101952.69;5055712;28;20045;-54
2023/03/27 09:17:48;;;;;;;1.98;0.57;;;;;;;5.44;100.00;101953.00;5057118;28;20052;-54
2023/03/27 09:20:20;;;;;;;4.15;0.60;;;;;;;5.52;100.00;101961.47;5059043;28;20052;-54
2023/03/27 09:22:54;;;;;;;1.85;0.50;;;;;;;5.59;100.00;101954.34;5059694;28;20407;-55
2023/03/27 09:25:27;;;;;;;2.05;0.57;;;;;;;5.91;100.00;101965.66;5057096;28;20071;-53
2023/03/27 09:27:59;;;;;;;2.15;0.60;;;;;;;6.03;100.00;101943.59;5067434;28;20454;-53
2023/03/27 09:30:28;;;;;;;2.55;0.60;;;;;;;6.21;100.00;101953.50;5060113;28;20048;-55
2023/03/27 09:33:02;;;;;;;1.95;0.70;;;;;;;6.31;100.00;101963.69;5062084;28;20129;-55
2023/03/27 09:35:30;;;;;;;2.55;0.60;;;;;;;6.51;100.00;101966.56;5058435;28;20131;-54
2023/03/27 09:38:05;;;;;;;3.22;0.70;;;;;;;6.70;100.00;101948.56;5060028;28;20036;-56
2023/03/27 09:40:43;;;;;;;3.72;0.80;;;;;;;6.82;100.00;101949.09;5062429;28;20085;-57
2023/03/27 09:43:17;;;;;;;4.45;1.00;;;;;;;7.11;100.00;101950.75;5062197;28;20527;-54
2023/03/27 09:45:47;;;;;;;5.85;0.95;;;;;;;7.12;100.00;101944.63;5064887;28;20379;-56
2023/03/27 09:48:25;;;;;;;5.63;0.98;;;;;;;7.11;100.00;101937.69;5063435;28;20048;-55
2023/03/27 09:50:53;;;;;;;4.10;0.98;;;;;;;7.56;100.00;101937.00;5062707;28;20048;-55
2023/03/27 09:53:24;;;;;;;5.72;1.00;;;;;;;7.55;100.00;101930.09;5064966;28;20467;-55
2023/03/27 09:55:55;;;;;;;4.13;1.10;;;;;;;7.61;100.00;101929.84;5065378;28;20047;-56
2023/03/27 09:58:31;;;;;;;4.32;1.02;;;;;;;8.01;100.00;101924.09;5061171;28;20044;-56
2023/03/27 10:01:15;;;;;;;7.10;1.27;;;;;;;8.02;100.00;101934.50;5058899;28;20048;-56
2023/03/27 10:03:48;;;;;;;5.85;0.90;;;;;;;7.70;100.00;101948.75;5062062;28;20040;-55
2023/03/27 10:06:25;;;;;;;4.47;0.93;;;;;;;7.11;100.00;101969.06;5059717;28;20162;-56
2023/03/27 10:08:55;;;;;;;4.43;0.60;;;;;;;6.88;100.00;101981.13;5066192;28;20123;-56
2023/03/27 10:11:27;;;;;;;7.05;0.90;;;;;;;6.73;100.00;101987.66;5060576;28;20037;-56
2023/03/27 10:13:56;;;;;;;3.50;0.80;;;;;;;6.57;100.00;101995.16;5057922;28;20048;-56
2023/03/27 10:16:26;;;;;;;2.60;0.70;;;;;;;6.37;100.00;101994.88;5058701;28;20063;-57
2023/03/27 10:18:58;;;;;;;5.35;1.00;;;;;;;6.19;100.00;101986.66;5057115;28;20041;-50
2023/03/27 10:21:29;;;;;;;1.87;0.50;;;;;;;6.62;100.00;101978.47;5056996;28;20118;-51
2023/03/27 10:24:05;;;;;;;3.53;0.75;;;;;;;6.90;100.00;101979.31;5056962;28;20049;-49
2023/03/27 10:26:37;;;;;;;3.53;0.80;;;;;;;6.87;100.00;101976.81;5062843;28;20045;-47
2023/03/27 10:29:20;;;;;;;4.65;0.90;;;;;;;7.17;100.00;101981.97;5062015;28;20098;-49
2023/03/27 10:31:51;;;;;;;3.30;0.93;;;;;;;7.40;100.00;101988.19;5059761;28;20041;-49
2023/03/27 10:34:32;;;;;;;3.33;0.90;;;;;;;7.82;100.00;101982.38;5062623;28;20071;-50
2023/03/27 10:37:18;;;;;;;2.53;1.27;;;;;;;8.03;100.00;101990.38;5063238;28;20040;-50
2023/03/27 10:39:47;;;;;;;3.75;0.98;;;;;;;8.28;100.00;101993.81;5065140;28;20090;-48
2023/03/27 10:42:17;;;;;;;2.92;1.00;;;;;;;8.28;100.00;101985.09;5062172;28;20064;-47
2023/03/27 10:44:47;;;;;;;6.25;1.13;;;;;;;8.36;100.00;101985.66;5061854;28;20044;-50
2023/03/27 10:47:19;;;;;;;2.88;0.88;;;;;;;8.46;100.00;101980.94;5062843;28;20079;-50
2023/03/27 10:49:55;;;;;;;4.00;0.80;;;;;;;9.01;100.00;101979.69;5062705;28;20076;-47
2023/03/27 10:52:28;;;;;;;4.75;0.93;;;;;;;9.32;100.00;101989.78;5057587;28;20099;-50
2023/03/27 10:55:16;;;;;;;3.17;0.90;;;;;;;9.64;100.00;101988.44;5064207;28;20040;-46
2023/03/27 10:57:52;;;;;;;5.50;1.17;;;;;;;9.92;100.00;101973.25;5061635;28;20060;-48
2023/03/27 11:00:32;;;;;;;4.25;0.90;;;;;;;10.34;100.00;101974.00;5061531;28;20044;-46
2023/03/27 11:03:08;;;;;;;3.80;0.90;;;;;;;10.28;100.00;101978.63;5062970;28;20534;-49
2023/03/27 11:05:40;;;;;;;4.63;0.90;;;;;;;10.62;100.00;101976.22;5057544;28;20040;-47
2023/03/27 11:08:15;;;;;;;2.47;0.75;;;;;;;10.69;99.09;101976.78;5058526;28;20574;-48
2023/03/27 11:10:46;;;;;;;2.95;0.70;;;;;;;10.48;95.75;101971.59;5062399;28;20466;-50
2023/03/27 11:13:21;;;;;;;5.85;0.80;;;;;;;10.09;91.98;101975.09;5062861;28;20075;-48
2023/03/27 11:15:54;;;;;;;4.80;0.95;;;;;;;10.32;90.28;101979.31;5061357;28;20515;-47
2023/03/27 11:18:25;;;;;;;2.08;0.80;;;;;;;9.42;91.82;101987.63;5057417;28;20044;-49
2023/03/27 11:20:58;;;;;;;4.35;0.95;;;;;;;9.48;91.02;101982.97;5060016;28;20051;-49
2023/03/27 11:23:30;;;;;;;;;;;;;;;10.15;94.80;101988.81;5062726;28;20120;-47
2023/03/27 11:26:04;;;;;;;5.45;1.65;;;;;;;10.05;92.27;101994.56;5061742;28;20334;-48
2023/03/27 11:28:41;;;;;;;4.60;0.90;;;;;;;9.66;86.71;101987.53;5060813;28;20051;-49
2023/03/27 11:31:16;;;;;;;4.00;0.80;;;;;;;9.61;90.73;101988.56;5067480;28;20159;-50
2023/03/27 11:33:50;;;;;;;5.55;1.25;;;;;;;9.38;91.27;101993.94;5069044;28;20381;-46
2023/03/27 11:36:43;;;;;;;6.00;1.35;;;;;;;9.42;93.26;102001.63;5068951;28;20040;-49
2023/03/27 11:39:19;;;;;;;5.38;1.30;;;;;;;9.08;97.03;101994.28;5071171;28;20063;-48
2023/03/27 11:41:52;;;;;;;4.45;1.02;;;;;;;9.26;96.70;102008.44;5072611;28;20446;-47
2023/03/27 11:44:21;;;;;;;7.93;1.52;;;;;;;8.93;100.00;102033.34;5072628;28;20049;-47
2023/03/27 11:47:04;;;;;;;4.53;0.82;;;;;;;8.65;100.00;102032.72;5072086;28;20082;-48